sensor_id;sensor_type;location;lat;lon;timestamp;P1;durP1;ratioP1;P2;durP2;ratioP2
10701;SDS011;5402;50.004;8.246;2022-10-22T00:00:23;8.20;;;4.60;;
10701;SDS011;5402;50.004;8.246;2022-10-22T00:02:49;7.77;;;4.67;;
10701;SDS011;5402;50.004;8.246;2022-10-22T00:05:16;7.13;;;4.30;;
10701;SDS011;5402;50.004;8.246;2022-10-22T00:07:43;4.60;;;4.03;;
10701;SDS011;5402;50.004;8.246;2022-10-22T00:10:10;7.53;;;4.60;;
10701;SDS011;5402;50.004;8.246;2022-10-22T00:12:38;5.43;;;4.20;;
10701;SDS011;5402;50.004;8.246;2022-10-22T00:15:05;7.87;;;4.10;;
10701;SDS011;5402;50.004;8.246;2022-10-22T00:17:32;7.17;;;4.87;;
10701;SDS011;5402;50.004;8.246;2022-10-22T00:20:00;8.13;;;4.50;;
10701;SDS011;5402;50.004;8.246;2022-10-22T00:22:26;11.83;;;4.83;;
10701;SDS011;5402;50.004;8.246;2022-10-22T00:24:53;9.27;;;4.53;;
10701;SDS011;5402;50.004;8.246;2022-10-22T00:27:20;8.93;;;4.10;;
10701;SDS011;5402;50.004;8.246;2022-10-22T00:29:48;6.63;;;4.43;;
10701;SDS011;5402;50.004;8.246;2022-10-22T00:32:15;6.47;;;4.30;;
10701;SDS011;5402;50.004;8.246;2022-10-22T00:34:41;7.77;;;4.77;;
10701;SDS011;5402;50.004;8.246;2022-10-22T00:37:08;7.83;;;4.53;;
10701;SDS011;5402;50.004;8.246;2022-10-22T00:39:35;9.07;;;4.33;;
10701;SDS011;5402;50.004;8.246;2022-10-22T00:42:02;7.50;;;4.77;;
10701;SDS011;5402;50.004;8.246;2022-10-22T00:47:29;7.80;;;4.40;;
10701;SDS011;5402;50.004;8.246;2022-10-22T00:49:58;8.83;;;4.37;;
10701;SDS011;5402;50.004;8.246;2022-10-22T00:52:27;7.13;;;5.00;;
10701;SDS011;5402;50.004;8.246;2022-10-22T00:54:54;7.47;;;4.53;;
10701;SDS011;5402;50.004;8.246;2022-10-22T00:57:22;7.53;;;4.77;;
10701;SDS011;5402;50.004;8.246;2022-10-22T00:59:49;13.83;;;4.73;;
10701;SDS011;5402;50.004;8.246;2022-10-22T01:02:17;7.77;;;4.90;;
10701;SDS011;5402;50.004;8.246;2022-10-22T01:04:44;10.07;;;4.53;;
10701;SDS011;5402;50.004;8.246;2022-10-22T01:07:12;6.20;;;4.40;;
10701;SDS011;5402;50.004;8.246;2022-10-22T01:09:43;5.80;;;4.47;;
10701;SDS011;5402;50.004;8.246;2022-10-22T01:12:18;7.27;;;4.67;;
10701;SDS011;5402;50.004;8.246;2022-10-22T01:14:57;6.73;;;4.70;;
10701;SDS011;5402;50.004;8.246;2022-10-22T01:17:42;10.00;;;4.80;;
10701;SDS011;5402;50.004;8.246;2022-10-22T01:20:22;7.57;;;4.90;;
10701;SDS011;5402;50.004;8.246;2022-10-22T01:23:05;7.40;;;5.20;;
10701;SDS011;5402;50.004;8.246;2022-10-22T01:25:44;12.63;;;5.40;;
10701;SDS011;5402;50.004;8.246;2022-10-22T01:28:17;9.33;;;5.37;;
10701;SDS011;5402;50.004;8.246;2022-10-22T01:30:49;10.37;;;5.50;;
10701;SDS011;5402;50.004;8.246;2022-10-22T01:33:20;8.23;;;5.63;;
10701;SDS011;5402;50.004;8.246;2022-10-22T01:35:50;10.03;;;5.77;;
10701;SDS011;5402;50.004;8.246;2022-10-22T01:38:19;9.83;;;5.50;;
10701;SDS011;5402;50.004;8.246;2022-10-22T01:40:48;12.00;;;5.60;;
10701;SDS011;5402;50.004;8.246;2022-10-22T01:43:16;8.33;;;5.53;;
10701;SDS011;5402;50.004;8.246;2022-10-22T01:45:44;9.33;;;5.63;;
10701;SDS011;5402;50.004;8.246;2022-10-22T01:48:20;8.40;;;5.90;;
10701;SDS011;5402;50.004;8.246;2022-10-22T01:51:05;9.20;;;5.53;;
10701;SDS011;5402;50.004;8.246;2022-10-22T01:53:47;10.17;;;5.53;;
10701;SDS011;5402;50.004;8.246;2022-10-22T01:56:22;11.43;;;5.03;;
10701;SDS011;5402;50.004;8.246;2022-10-22T01:59:00;8.97;;;5.03;;
10701;SDS011;5402;50.004;8.246;2022-10-22T02:01:34;10.70;;;4.53;;
10701;SDS011;5402;50.004;8.246;2022-10-22T02:04:09;14.23;;;5.07;;
10701;SDS011;5402;50.004;8.246;2022-10-22T02:06:42;6.67;;;4.37;;
10701;SDS011;5402;50.004;8.246;2022-10-22T02:09:10;5.17;;;3.93;;
10701;SDS011;5402;50.004;8.246;2022-10-22T02:11:40;5.63;;;4.07;;
10701;SDS011;5402;50.004;8.246;2022-10-22T02:14:07;7.40;;;4.40;;
10701;SDS011;5402;50.004;8.246;2022-10-22T02:16:39;6.67;;;4.40;;
10701;SDS011;5402;50.004;8.246;2022-10-22T02:19:14;7.93;;;4.30;;
10701;SDS011;5402;50.004;8.246;2022-10-22T02:21:48;8.33;;;3.43;;
10701;SDS011;5402;50.004;8.246;2022-10-22T02:24:15;4.83;;;3.17;;
10701;SDS011;5402;50.004;8.246;2022-10-22T02:26:43;6.03;;;3.13;;
10701;SDS011;5402;50.004;8.246;2022-10-22T02:29:14;4.27;;;2.97;;
10701;SDS011;5402;50.004;8.246;2022-10-22T02:31:46;6.07;;;2.73;;
10701;SDS011;5402;50.004;8.246;2022-10-22T02:34:18;4.03;;;2.80;;
10701;SDS011;5402;50.004;8.246;2022-10-22T02:36:49;4.20;;;2.40;;
10701;SDS011;5402;50.004;8.246;2022-10-22T02:39:16;7.23;;;3.00;;
10701;SDS011;5402;50.004;8.246;2022-10-22T02:41:45;2.80;;;2.33;;
10701;SDS011;5402;50.004;8.246;2022-10-22T02:44:13;2.70;;;2.27;;
10701;SDS011;5402;50.004;8.246;2022-10-22T02:46:39;6.33;;;2.30;;
10701;SDS011;5402;50.004;8.246;2022-10-22T02:49:08;5.30;;;2.50;;
10701;SDS011;5402;50.004;8.246;2022-10-22T02:51:36;4.70;;;2.10;;
10701;SDS011;5402;50.004;8.246;2022-10-22T02:54:03;3.40;;;2.10;;
10701;SDS011;5402;50.004;8.246;2022-10-22T02:56:30;3.87;;;2.53;;
10701;SDS011;5402;50.004;8.246;2022-10-22T02:58:56;3.23;;;2.40;;
10701;SDS011;5402;50.004;8.246;2022-10-22T03:01:23;2.83;;;2.30;;
10701;SDS011;5402;50.004;8.246;2022-10-22T03:03:50;4.83;;;2.67;;
10701;SDS011;5402;50.004;8.246;2022-10-22T03:06:17;4.43;;;2.00;;
10701;SDS011;5402;50.004;8.246;2022-10-22T03:08:45;3.50;;;2.27;;
10701;SDS011;5402;50.004;8.246;2022-10-22T03:11:12;2.77;;;2.20;;
10701;SDS011;5402;50.004;8.246;2022-10-22T03:13:38;2.27;;;1.90;;
10701;SDS011;5402;50.004;8.246;2022-10-22T03:16:05;3.00;;;2.30;;
10701;SDS011;5402;50.004;8.246;2022-10-22T03:18:32;4.03;;;2.40;;
10701;SDS011;5402;50.004;8.246;2022-10-22T03:21:00;4.33;;;2.20;;
10701;SDS011;5402;50.004;8.246;2022-10-22T03:23:32;4.53;;;2.13;;
10701;SDS011;5402;50.004;8.246;2022-10-22T03:26:01;3.40;;;2.00;;
10701;SDS011;5402;50.004;8.246;2022-10-22T03:28:31;3.57;;;2.10;;
10701;SDS011;5402;50.004;8.246;2022-10-22T03:30:58;3.03;;;2.07;;
10701;SDS011;5402;50.004;8.246;2022-10-22T03:33:25;2.70;;;2.30;;
10701;SDS011;5402;50.004;8.246;2022-10-22T03:35:51;4.23;;;2.40;;
10701;SDS011;5402;50.004;8.246;2022-10-22T03:38:18;3.73;;;2.07;;
10701;SDS011;5402;50.004;8.246;2022-10-22T03:40:45;4.97;;;2.07;;
10701;SDS011;5402;50.004;8.246;2022-10-22T03:43:14;5.20;;;2.27;;
10701;SDS011;5402;50.004;8.246;2022-10-22T03:45:41;5.40;;;2.10;;
10701;SDS011;5402;50.004;8.246;2022-10-22T03:48:07;3.73;;;2.03;;
10701;SDS011;5402;50.004;8.246;2022-10-22T03:50:34;4.57;;;2.17;;
10701;SDS011;5402;50.004;8.246;2022-10-22T03:53:01;3.53;;;2.17;;
10701;SDS011;5402;50.004;8.246;2022-10-22T03:55:29;4.47;;;2.10;;
10701;SDS011;5402;50.004;8.246;2022-10-22T03:57:55;2.63;;;2.00;;
10701;SDS011;5402;50.004;8.246;2022-10-22T04:00:23;1.73;;;1.63;;
10701;SDS011;5402;50.004;8.246;2022-10-22T04:02:50;5.17;;;2.00;;
10701;SDS011;5402;50.004;8.246;2022-10-22T04:05:17;4.40;;;2.17;;
10701;SDS011;5402;50.004;8.246;2022-10-22T04:07:43;2.53;;;2.20;;
10701;SDS011;5402;50.004;8.246;2022-10-22T04:10:10;4.57;;;2.10;;
10701;SDS011;5402;50.004;8.246;2022-10-22T04:12:37;3.07;;;1.87;;
10701;SDS011;5402;50.004;8.246;2022-10-22T04:15:04;4.90;;;2.27;;
10701;SDS011;5402;50.004;8.246;2022-10-22T04:17:33;2.77;;;1.73;;
10701;SDS011;5402;50.004;8.246;2022-10-22T04:20:01;3.00;;;2.13;;
10701;SDS011;5402;50.004;8.246;2022-10-22T04:22:29;3.30;;;1.70;;
10701;SDS011;5402;50.004;8.246;2022-10-22T04:38:18;3.53;;;1.90;;
10701;SDS011;5402;50.004;8.246;2022-10-22T04:40:45;1.93;;;1.73;;
10701;SDS011;5402;50.004;8.246;2022-10-22T04:43:11;7.23;;;1.73;;
10701;SDS011;5402;50.004;8.246;2022-10-22T04:45:38;1.97;;;1.80;;
10701;SDS011;5402;50.004;8.246;2022-10-22T04:48:05;1.70;;;1.60;;
10701;SDS011;5402;50.004;8.246;2022-10-22T04:50:32;5.17;;;1.97;;
10701;SDS011;5402;50.004;8.246;2022-10-22T04:52:59;4.93;;;1.83;;
10701;SDS011;5402;50.004;8.246;2022-10-22T04:55:27;3.27;;;1.53;;
10701;SDS011;5402;50.004;8.246;2022-10-22T04:57:53;3.30;;;1.50;;
10701;SDS011;5402;50.004;8.246;2022-10-22T05:00:20;3.33;;;1.50;;
10701;SDS011;5402;50.004;8.246;2022-10-22T05:02:47;3.23;;;1.37;;
10701;SDS011;5402;50.004;8.246;2022-10-22T05:05:15;1.70;;;1.40;;
10701;SDS011;5402;50.004;8.246;2022-10-22T05:07:42;2.17;;;1.50;;
10701;SDS011;5402;50.004;8.246;2022-10-22T05:10:09;2.40;;;1.30;;
10701;SDS011;5402;50.004;8.246;2022-10-22T05:12:37;1.40;;;1.30;;
10701;SDS011;5402;50.004;8.246;2022-10-22T05:15:04;2.00;;;1.37;;
10701;SDS011;5402;50.004;8.246;2022-10-22T05:17:34;3.33;;;1.50;;
10701;SDS011;5402;50.004;8.246;2022-10-22T05:20:01;3.60;;;1.40;;
10701;SDS011;5402;50.004;8.246;2022-10-22T05:22:28;1.67;;;1.37;;
10701;SDS011;5402;50.004;8.246;2022-10-22T05:24:55;5.77;;;1.33;;
10701;SDS011;5402;50.004;8.246;2022-10-22T05:27:22;3.20;;;1.40;;
10701;SDS011;5402;50.004;8.246;2022-10-22T05:29:50;1.40;;;1.30;;
10701;SDS011;5402;50.004;8.246;2022-10-22T05:32:17;3.13;;;1.37;;
10701;SDS011;5402;50.004;8.246;2022-10-22T05:34:44;1.40;;;1.30;;
10701;SDS011;5402;50.004;8.246;2022-10-22T05:37:11;6.37;;;1.33;;
10701;SDS011;5402;50.004;8.246;2022-10-22T05:39:37;4.80;;;1.33;;
10701;SDS011;5402;50.004;8.246;2022-10-22T05:42:05;2.40;;;1.40;;
10701;SDS011;5402;50.004;8.246;2022-10-22T05:44:32;1.47;;;1.37;;
10701;SDS011;5402;50.004;8.246;2022-10-22T05:47:00;1.53;;;1.40;;
10701;SDS011;5402;50.004;8.246;2022-10-22T05:49:27;2.47;;;1.60;;
10701;SDS011;5402;50.004;8.246;2022-10-22T05:51:54;2.20;;;1.50;;
10701;SDS011;5402;50.004;8.246;2022-10-22T05:54:20;1.50;;;1.30;;
10701;SDS011;5402;50.004;8.246;2022-10-22T05:56:47;3.30;;;1.40;;
10701;SDS011;5402;50.004;8.246;2022-10-22T05:59:14;1.80;;;1.40;;
10701;SDS011;5402;50.004;8.246;2022-10-22T06:01:41;2.10;;;1.50;;
10701;SDS011;5402;50.004;8.246;2022-10-22T06:04:10;2.63;;;1.60;;
10701;SDS011;5402;50.004;8.246;2022-10-22T06:06:38;1.53;;;1.30;;
10701;SDS011;5402;50.004;8.246;2022-10-22T06:09:10;3.60;;;1.40;;
10701;SDS011;5402;50.004;8.246;2022-10-22T06:11:39;3.00;;;1.93;;
10701;SDS011;5402;50.004;8.246;2022-10-22T06:14:06;2.93;;;1.70;;
10701;SDS011;5402;50.004;8.246;2022-10-22T06:16:34;3.20;;;2.20;;
10701;SDS011;5402;50.004;8.246;2022-10-22T06:19:01;2.40;;;1.80;;
10701;SDS011;5402;50.004;8.246;2022-10-22T06:21:29;3.17;;;1.70;;
10701;SDS011;5402;50.004;8.246;2022-10-22T06:23:57;3.90;;;1.57;;
10701;SDS011;5402;50.004;8.246;2022-10-22T06:26:25;3.30;;;1.70;;
10701;SDS011;5402;50.004;8.246;2022-10-22T06:28:53;2.00;;;1.67;;
10701;SDS011;5402;50.004;8.246;2022-10-22T06:31:20;3.60;;;1.70;;
10701;SDS011;5402;50.004;8.246;2022-10-22T06:33:47;1.83;;;1.70;;
10701;SDS011;5402;50.004;8.246;2022-10-22T06:36:14;1.43;;;1.33;;
10701;SDS011;5402;50.004;8.246;2022-10-22T06:38:44;2.20;;;1.60;;
10701;SDS011;5402;50.004;8.246;2022-10-22T06:41:12;2.70;;;1.67;;
10701;SDS011;5402;50.004;8.246;2022-10-22T06:43:40;2.60;;;1.60;;
10701;SDS011;5402;50.004;8.246;2022-10-22T06:46:09;3.77;;;1.93;;
10701;SDS011;5402;50.004;8.246;2022-10-22T06:48:37;4.90;;;2.00;;
10701;SDS011;5402;50.004;8.246;2022-10-22T06:51:05;4.10;;;1.60;;
10701;SDS011;5402;50.004;8.246;2022-10-22T06:53:33;2.30;;;1.40;;
10701;SDS011;5402;50.004;8.246;2022-10-22T06:56:04;5.40;;;1.53;;
10701;SDS011;5402;50.004;8.246;2022-10-22T06:58:31;1.67;;;1.50;;
10701;SDS011;5402;50.004;8.246;2022-10-22T07:00:59;1.50;;;1.40;;
10701;SDS011;5402;50.004;8.246;2022-10-22T07:03:27;3.20;;;1.60;;
10701;SDS011;5402;50.004;8.246;2022-10-22T07:05:57;3.63;;;1.97;;
10701;SDS011;5402;50.004;8.246;2022-10-22T07:08:24;3.33;;;1.70;;
10701;SDS011;5402;50.004;8.246;2022-10-22T07:10:51;5.73;;;1.60;;
10701;SDS011;5402;50.004;8.246;2022-10-22T07:13:20;2.03;;;1.47;;
10701;SDS011;5402;50.004;8.246;2022-10-22T07:15:50;4.83;;;1.50;;
10701;SDS011;5402;50.004;8.246;2022-10-22T07:18:17;2.97;;;1.60;;
10701;SDS011;5402;50.004;8.246;2022-10-22T07:20:44;4.57;;;1.70;;
10701;SDS011;5402;50.004;8.246;2022-10-22T07:23:12;5.00;;;1.63;;
10701;SDS011;5402;50.004;8.246;2022-10-22T07:25:39;4.63;;;1.80;;
10701;SDS011;5402;50.004;8.246;2022-10-22T07:28:06;1.90;;;1.67;;
10701;SDS011;5402;50.004;8.246;2022-10-22T07:30:35;3.40;;;1.60;;
10701;SDS011;5402;50.004;8.246;2022-10-22T07:33:02;4.67;;;1.70;;
10701;SDS011;5402;50.004;8.246;2022-10-22T07:35:29;3.60;;;1.50;;
10701;SDS011;5402;50.004;8.246;2022-10-22T07:37:56;1.90;;;1.50;;
10701;SDS011;5402;50.004;8.246;2022-10-22T07:40:22;2.30;;;1.43;;
10701;SDS011;5402;50.004;8.246;2022-10-22T07:42:49;1.77;;;1.43;;
10701;SDS011;5402;50.004;8.246;2022-10-22T07:45:16;2.37;;;1.50;;
10701;SDS011;5402;50.004;8.246;2022-10-22T07:47:45;3.90;;;1.50;;
10701;SDS011;5402;50.004;8.246;2022-10-22T07:50:12;3.43;;;1.40;;
10701;SDS011;5402;50.004;8.246;2022-10-22T07:52:39;5.50;;;2.30;;
10701;SDS011;5402;50.004;8.246;2022-10-22T07:55:06;3.83;;;1.47;;
10701;SDS011;5402;50.004;8.246;2022-10-22T07:57:34;4.30;;;1.63;;
10701;SDS011;5402;50.004;8.246;2022-10-22T08:00:01;1.40;;;1.23;;
10701;SDS011;5402;50.004;8.246;2022-10-22T08:02:29;3.27;;;1.57;;
10701;SDS011;5402;50.004;8.246;2022-10-22T08:04:57;2.67;;;1.10;;
10701;SDS011;5402;50.004;8.246;2022-10-22T08:07:24;3.03;;;1.20;;
10701;SDS011;5402;50.004;8.246;2022-10-22T08:09:51;3.40;;;1.30;;
10701;SDS011;5402;50.004;8.246;2022-10-22T08:12:18;2.30;;;1.20;;
10701;SDS011;5402;50.004;8.246;2022-10-22T08:14:45;2.27;;;1.40;;
10701;SDS011;5402;50.004;8.246;2022-10-22T08:17:14;1.23;;;1.10;;
10701;SDS011;5402;50.004;8.246;2022-10-22T08:19:41;1.27;;;1.17;;
10701;SDS011;5402;50.004;8.246;2022-10-22T08:22:09;1.90;;;1.20;;
10701;SDS011;5402;50.004;8.246;2022-10-22T08:24:36;2.17;;;1.10;;
10701;SDS011;5402;50.004;8.246;2022-10-22T08:27:03;1.77;;;1.00;;
10701;SDS011;5402;50.004;8.246;2022-10-22T08:29:29;1.87;;;1.10;;
10701;SDS011;5402;50.004;8.246;2022-10-22T08:31:56;1.37;;;1.07;;
10701;SDS011;5402;50.004;8.246;2022-10-22T08:34:23;0.93;;;0.87;;
10701;SDS011;5402;50.004;8.246;2022-10-22T08:36:49;1.30;;;1.03;;
10701;SDS011;5402;50.004;8.246;2022-10-22T08:39:18;3.80;;;0.90;;
10701;SDS011;5402;50.004;8.246;2022-10-22T08:41:46;1.27;;;0.93;;
10701;SDS011;5402;50.004;8.246;2022-10-22T08:44:27;1.30;;;0.90;;
10701;SDS011;5402;50.004;8.246;2022-10-22T08:47:13;1.33;;;0.97;;
10701;SDS011;5402;50.004;8.246;2022-10-22T08:49:50;4.63;;;1.20;;
10701;SDS011;5402;50.004;8.246;2022-10-22T08:52:21;0.87;;;0.80;;
10701;SDS011;5402;50.004;8.246;2022-10-22T08:54:52;2.53;;;0.80;;
10701;SDS011;5402;50.004;8.246;2022-10-22T08:57:23;1.23;;;0.93;;
10701;SDS011;5402;50.004;8.246;2022-10-22T09:00:09;1.97;;;0.93;;
10701;SDS011;5402;50.004;8.246;2022-10-22T09:02:39;1.40;;;0.80;;
10701;SDS011;5402;50.004;8.246;2022-10-22T09:05:22;0.63;;;0.63;;
10701;SDS011;5402;50.004;8.246;2022-10-22T09:07:58;1.93;;;1.10;;
10701;SDS011;5402;50.004;8.246;2022-10-22T09:10:28;3.60;;;0.97;;
10701;SDS011;5402;50.004;8.246;2022-10-22T09:12:58;0.70;;;0.70;;
10701;SDS011;5402;50.004;8.246;2022-10-22T09:15:24;2.10;;;0.67;;
10701;SDS011;5402;50.004;8.246;2022-10-22T09:17:55;2.23;;;0.70;;
10701;SDS011;5402;50.004;8.246;2022-10-22T09:20:31;2.00;;;1.03;;
10701;SDS011;5402;50.004;8.246;2022-10-22T09:23:13;1.40;;;0.73;;
10701;SDS011;5402;50.004;8.246;2022-10-22T09:25:49;2.33;;;0.70;;
10701;SDS011;5402;50.004;8.246;2022-10-22T09:28:17;0.60;;;0.60;;
10701;SDS011;5402;50.004;8.246;2022-10-22T09:30:44;3.20;;;0.67;;
10701;SDS011;5402;50.004;8.246;2022-10-22T09:33:11;1.77;;;0.73;;
10701;SDS011;5402;50.004;8.246;2022-10-22T09:35:43;1.37;;;0.80;;
10701;SDS011;5402;50.004;8.246;2022-10-22T09:38:13;0.73;;;0.70;;
10701;SDS011;5402;50.004;8.246;2022-10-22T09:40:42;2.57;;;1.57;;
10701;SDS011;5402;50.004;8.246;2022-10-22T09:43:12;1.53;;;1.13;;
10701;SDS011;5402;50.004;8.246;2022-10-22T09:45:40;0.80;;;0.80;;
10701;SDS011;5402;50.004;8.246;2022-10-22T09:48:13;0.70;;;0.60;;
10701;SDS011;5402;50.004;8.246;2022-10-22T09:50:46;1.53;;;0.80;;
10701;SDS011;5402;50.004;8.246;2022-10-22T09:53:17;3.20;;;0.80;;
10701;SDS011;5402;50.004;8.246;2022-10-22T09:55:48;1.73;;;0.87;;
10701;SDS011;5402;50.004;8.246;2022-10-22T09:58:19;5.03;;;1.13;;
10701;SDS011;5402;50.004;8.246;2022-10-22T10:00:46;3.57;;;0.97;;
10701;SDS011;5402;50.004;8.246;2022-10-22T10:03:17;1.10;;;0.80;;
10701;SDS011;5402;50.004;8.246;2022-10-22T10:05:47;3.33;;;0.70;;
10701;SDS011;5402;50.004;8.246;2022-10-22T10:08:16;3.13;;;0.90;;
10701;SDS011;5402;50.004;8.246;2022-10-22T10:10:44;0.93;;;0.80;;
10701;SDS011;5402;50.004;8.246;2022-10-22T10:13:17;1.00;;;0.70;;
10701;SDS011;5402;50.004;8.246;2022-10-22T10:16:19;1.23;;;0.80;;
10701;SDS011;5402;50.004;8.246;2022-10-22T10:19:03;1.27;;;0.97;;
10701;SDS011;5402;50.004;8.246;2022-10-22T10:21:42;1.57;;;0.63;;
10701;SDS011;5402;50.004;8.246;2022-10-22T10:24:19;1.97;;;0.80;;
10701;SDS011;5402;50.004;8.246;2022-10-22T10:26:52;2.40;;;1.00;;
10701;SDS011;5402;50.004;8.246;2022-10-22T10:29:29;2.07;;;0.67;;
10701;SDS011;5402;50.004;8.246;2022-10-22T10:32:15;2.63;;;1.20;;
10701;SDS011;5402;50.004;8.246;2022-10-22T10:35:14;4.37;;;0.90;;
10701;SDS011;5402;50.004;8.246;2022-10-22T10:37:49;2.30;;;0.77;;
10701;SDS011;5402;50.004;8.246;2022-10-22T10:40:28;1.20;;;0.80;;
10701;SDS011;5402;50.004;8.246;2022-10-22T10:42:59;2.57;;;0.83;;
10701;SDS011;5402;50.004;8.246;2022-10-22T10:45:35;0.80;;;0.80;;
10701;SDS011;5402;50.004;8.246;2022-10-22T10:51:06;4.70;;;1.20;;
10701;SDS011;5402;50.004;8.246;2022-10-22T10:53:42;1.27;;;0.80;;
10701;SDS011;5402;50.004;8.246;2022-10-22T10:56:23;1.23;;;0.83;;
10701;SDS011;5402;50.004;8.246;2022-10-22T10:58:59;1.77;;;0.70;;
10701;SDS011;5402;50.004;8.246;2022-10-22T11:01:39;2.43;;;0.80;;
10701;SDS011;5402;50.004;8.246;2022-10-22T11:04:29;0.83;;;0.83;;
10701;SDS011;5402;50.004;8.246;2022-10-22T11:07:11;0.73;;;0.73;;
10701;SDS011;5402;50.004;8.246;2022-10-22T11:09:41;3.40;;;0.90;;
10701;SDS011;5402;50.004;8.246;2022-10-22T11:12:13;1.57;;;1.20;;
10701;SDS011;5402;50.004;8.246;2022-10-22T11:14:48;2.47;;;0.73;;
10701;SDS011;5402;50.004;8.246;2022-10-22T11:17:25;2.20;;;1.13;;
10701;SDS011;5402;50.004;8.246;2022-10-22T11:19:58;1.37;;;0.97;;
10701;SDS011;5402;50.004;8.246;2022-10-22T11:22:32;3.90;;;1.10;;
10701;SDS011;5402;50.004;8.246;2022-10-22T11:25:02;1.60;;;0.93;;
10701;SDS011;5402;50.004;8.246;2022-10-22T11:27:39;3.07;;;1.10;;
10701;SDS011;5402;50.004;8.246;2022-10-22T11:30:11;2.70;;;0.80;;
10701;SDS011;5402;50.004;8.246;2022-10-22T11:32:43;3.00;;;1.10;;
10701;SDS011;5402;50.004;8.246;2022-10-22T11:35:14;1.37;;;1.00;;
10701;SDS011;5402;50.004;8.246;2022-10-22T11:37:43;2.37;;;1.00;;
10701;SDS011;5402;50.004;8.246;2022-10-22T11:40:13;1.97;;;0.90;;
10701;SDS011;5402;50.004;8.246;2022-10-22T11:42:44;2.93;;;1.10;;
10701;SDS011;5402;50.004;8.246;2022-10-22T11:45:27;1.90;;;1.00;;
10701;SDS011;5402;50.004;8.246;2022-10-22T11:47:58;2.20;;;0.90;;
10701;SDS011;5402;50.004;8.246;2022-10-22T11:50:43;1.23;;;0.80;;
10701;SDS011;5402;50.004;8.246;2022-10-22T11:53:16;3.08;;;1.10;;
10701;SDS011;5402;50.004;8.246;2022-10-22T11:55:45;2.10;;;1.30;;
10701;SDS011;5402;50.004;8.246;2022-10-22T11:58:24;4.85;;;1.42;;
10701;SDS011;5402;50.004;8.246;2022-10-22T12:00:55;3.53;;;0.98;;
10701;SDS011;5402;50.004;8.246;2022-10-22T12:03:35;1.57;;;1.00;;
10701;SDS011;5402;50.004;8.246;2022-10-22T12:06:07;2.35;;;1.20;;
10701;SDS011;5402;50.004;8.246;2022-10-22T12:08:50;2.77;;;1.00;;
10701;SDS011;5402;50.004;8.246;2022-10-22T12:11:22;2.57;;;1.10;;
10701;SDS011;5402;50.004;8.246;2022-10-22T12:13:55;1.87;;;1.30;;
10701;SDS011;5402;50.004;8.246;2022-10-22T12:16:43;2.33;;;1.13;;
10701;SDS011;5402;50.004;8.246;2022-10-22T12:19:14;3.58;;;1.23;;
10701;SDS011;5402;50.004;8.246;2022-10-22T12:21:44;1.37;;;1.00;;
10701;SDS011;5402;50.004;8.246;2022-10-22T12:24:13;3.53;;;1.30;;
10701;SDS011;5402;50.004;8.246;2022-10-22T12:26:42;3.07;;;0.93;;
10701;SDS011;5402;50.004;8.246;2022-10-22T12:29:10;3.70;;;0.90;;
10701;SDS011;5402;50.004;8.246;2022-10-22T12:31:39;3.22;;;1.20;;
10701;SDS011;5402;50.004;8.246;2022-10-22T12:34:13;1.65;;;0.90;;
10701;SDS011;5402;50.004;8.246;2022-10-22T12:36:41;2.63;;;0.95;;
10701;SDS011;5402;50.004;8.246;2022-10-22T12:39:11;2.15;;;1.05;;
10701;SDS011;5402;50.004;8.246;2022-10-22T12:41:39;2.25;;;1.02;;
10701;SDS011;5402;50.004;8.246;2022-10-22T12:44:06;2.58;;;1.20;;
10701;SDS011;5402;50.004;8.246;2022-10-22T12:46:36;2.60;;;1.13;;
10701;SDS011;5402;50.004;8.246;2022-10-22T12:49:03;3.28;;;1.25;;
10701;SDS011;5402;50.004;8.246;2022-10-22T12:51:34;2.47;;;1.10;;
10701;SDS011;5402;50.004;8.246;2022-10-22T12:54:03;2.88;;;1.00;;
10701;SDS011;5402;50.004;8.246;2022-10-22T12:56:33;1.77;;;1.00;;
10701;SDS011;5402;50.004;8.246;2022-10-22T12:59:02;3.40;;;1.58;;
10701;SDS011;5402;50.004;8.246;2022-10-22T13:01:33;3.20;;;1.20;;
10701;SDS011;5402;50.004;8.246;2022-10-22T13:04:03;4.18;;;1.15;;
10701;SDS011;5402;50.004;8.246;2022-10-22T13:06:33;2.05;;;1.27;;
10701;SDS011;5402;50.004;8.246;2022-10-22T13:09:04;1.70;;;1.00;;
10701;SDS011;5402;50.004;8.246;2022-10-22T13:11:38;3.15;;;1.15;;
10701;SDS011;5402;50.004;8.246;2022-10-22T13:14:13;2.08;;;1.20;;
10701;SDS011;5402;50.004;8.246;2022-10-22T13:19:37;4.07;;;1.13;;
10701;SDS011;5402;50.004;8.246;2022-10-22T13:22:27;2.75;;;1.30;;
10701;SDS011;5402;50.004;8.246;2022-10-22T13:25:02;1.85;;;1.20;;
10701;SDS011;5402;50.004;8.246;2022-10-22T13:27:43;3.63;;;1.20;;
10701;SDS011;5402;50.004;8.246;2022-10-22T13:30:16;4.53;;;1.13;;
10701;SDS011;5402;50.004;8.246;2022-10-22T13:32:47;4.07;;;1.35;;
10701;SDS011;5402;50.004;8.246;2022-10-22T13:35:15;4.80;;;1.15;;
10701;SDS011;5402;50.004;8.246;2022-10-22T13:37:48;3.50;;;1.10;;
10701;SDS011;5402;50.004;8.246;2022-10-22T13:40:15;3.47;;;1.30;;
10701;SDS011;5402;50.004;8.246;2022-10-22T13:42:42;3.28;;;1.35;;
10701;SDS011;5402;50.004;8.246;2022-10-22T13:45:10;4.03;;;1.20;;
10701;SDS011;5402;50.004;8.246;2022-10-22T13:47:37;2.40;;;1.20;;
10701;SDS011;5402;50.004;8.246;2022-10-22T13:50:06;2.45;;;1.20;;
10701;SDS011;5402;50.004;8.246;2022-10-22T13:52:39;2.95;;;1.00;;
10701;SDS011;5402;50.004;8.246;2022-10-22T13:55:13;2.10;;;1.20;;
10701;SDS011;5402;50.004;8.246;2022-10-22T13:57:42;4.88;;;1.33;;
10701;SDS011;5402;50.004;8.246;2022-10-22T14:00:13;4.20;;;1.05;;
10701;SDS011;5402;50.004;8.246;2022-10-22T14:02:42;1.85;;;1.23;;
10701;SDS011;5402;50.004;8.246;2022-10-22T14:05:11;3.38;;;1.13;;
10701;SDS011;5402;50.004;8.246;2022-10-22T14:07:38;3.42;;;1.40;;
10701;SDS011;5402;50.004;8.246;2022-10-22T14:10:13;2.13;;;0.90;;
10701;SDS011;5402;50.004;8.246;2022-10-22T14:12:42;4.50;;;1.38;;
10701;SDS011;5402;50.004;8.246;2022-10-22T14:15:09;2.83;;;1.20;;
10701;SDS011;5402;50.004;8.246;2022-10-22T14:17:37;3.27;;;1.33;;
10701;SDS011;5402;50.004;8.246;2022-10-22T14:20:08;4.20;;;1.63;;
10701;SDS011;5402;50.004;8.246;2022-10-22T14:22:39;1.80;;;0.90;;
10701;SDS011;5402;50.004;8.246;2022-10-22T14:25:08;2.53;;;1.10;;
10701;SDS011;5402;50.004;8.246;2022-10-22T14:27:38;4.30;;;1.10;;
10701;SDS011;5402;50.004;8.246;2022-10-22T14:30:06;3.60;;;1.20;;
10701;SDS011;5402;50.004;8.246;2022-10-22T14:32:34;2.07;;;1.33;;
10701;SDS011;5402;50.004;8.246;2022-10-22T14:35:00;2.87;;;1.10;;
10701;SDS011;5402;50.004;8.246;2022-10-22T14:37:28;5.33;;;1.20;;
10701;SDS011;5402;50.004;8.246;2022-10-22T14:39:54;2.87;;;1.27;;
10701;SDS011;5402;50.004;8.246;2022-10-22T14:42:25;3.70;;;1.40;;
10701;SDS011;5402;50.004;8.246;2022-10-22T14:44:54;6.20;;;1.60;;
10701;SDS011;5402;50.004;8.246;2022-10-22T14:47:20;5.37;;;1.40;;
10701;SDS011;5402;50.004;8.246;2022-10-22T14:49:47;7.07;;;1.37;;
10701;SDS011;5402;50.004;8.246;2022-10-22T14:52:14;1.60;;;1.03;;
10701;SDS011;5402;50.004;8.246;2022-10-22T14:54:40;4.30;;;1.50;;
10701;SDS011;5402;50.004;8.246;2022-10-22T14:57:08;3.10;;;1.83;;
10701;SDS011;5402;50.004;8.246;2022-10-22T14:59:38;5.00;;;1.30;;
10701;SDS011;5402;50.004;8.246;2022-10-22T15:02:07;5.17;;;1.30;;
10701;SDS011;5402;50.004;8.246;2022-10-22T15:04:37;2.10;;;1.23;;
10701;SDS011;5402;50.004;8.246;2022-10-22T15:07:04;4.43;;;1.47;;
10701;SDS011;5402;50.004;8.246;2022-10-22T15:09:31;4.90;;;1.87;;
10701;SDS011;5402;50.004;8.246;2022-10-22T15:11:58;1.57;;;1.00;;
10701;SDS011;5402;50.004;8.246;2022-10-22T15:14:24;3.87;;;1.53;;
10701;SDS011;5402;50.004;8.246;2022-10-22T15:16:51;3.40;;;1.37;;
10701;SDS011;5402;50.004;8.246;2022-10-22T15:19:19;4.03;;;0.93;;
10701;SDS011;5402;50.004;8.246;2022-10-22T15:21:46;2.97;;;1.17;;
10701;SDS011;5402;50.004;8.246;2022-10-22T15:24:13;6.18;;;1.33;;
10701;SDS011;5402;50.004;8.246;2022-10-22T15:26:39;1.80;;;1.10;;
10701;SDS011;5402;50.004;8.246;2022-10-22T15:29:06;4.63;;;1.00;;
10701;SDS011;5402;50.004;8.246;2022-10-22T15:31:44;4.60;;;1.30;;
10701;SDS011;5402;50.004;8.246;2022-10-22T15:34:16;4.10;;;1.40;;
10701;SDS011;5402;50.004;8.246;2022-10-22T15:36:45;4.83;;;1.60;;
10701;SDS011;5402;50.004;8.246;2022-10-22T15:39:12;3.23;;;1.10;;